createdAt,value
2018-06-16T00:01:27.661Z,101165.75
2018-06-16T00:03:57.057Z,101165.20
2018-06-16T00:06:25.977Z,101161.09
2018-06-16T00:08:55.559Z,101162.42
2018-06-16T00:11:24.479Z,101165.36
2018-06-16T00:13:53.512Z,101164.62
2018-06-16T00:16:22.425Z,101162.16
2018-06-16T00:18:51.331Z,101162.72
2018-06-16T00:21:20.272Z,101161.97
2018-06-16T00:23:49.188Z,101163.59
2018-06-16T00:26:18.108Z,101159.86
2018-06-16T00:28:47.068Z,101160.95
2018-06-16T00:31:15.997Z,101161.27
2018-06-16T00:33:44.936Z,101164.05
2018-06-16T00:36:13.874Z,101164.25
2018-06-16T00:38:42.836Z,101170.17
2018-06-16T00:41:12.344Z,101155.52
2018-06-16T00:43:41.732Z,101160.98
2018-06-16T00:46:11.238Z,101159.85
2018-06-16T00:48:40.707Z,101155.28
2018-06-16T00:51:10.336Z,101154.47
2018-06-16T00:53:39.297Z,101159.01
2018-06-16T00:56:08.220Z,101157.91
2018-06-16T00:58:37.147Z,101157.42
2018-06-16T01:01:06.067Z,101155.55
2018-06-16T01:03:35.015Z,101160.95
2018-06-16T01:06:03.933Z,101153.89
2018-06-16T01:08:32.860Z,101158.23
2018-06-16T01:11:01.777Z,101153.89
2018-06-16T01:13:30.713Z,101153.66
2018-06-16T01:15:59.659Z,101154.26
2018-06-16T01:18:28.788Z,101159.66
2018-06-16T01:20:58.066Z,101161.60
2018-06-16T01:23:27.232Z,101159.14
2018-06-16T01:25:56.530Z,101159.34
2018-06-16T01:28:26.044Z,101152.31
2018-06-16T01:30:54.996Z,101155.39
2018-06-16T01:33:23.926Z,101162.70
2018-06-16T01:35:52.843Z,101156.66
2018-06-16T01:38:21.957Z,101159.92
2018-06-16T01:40:50.903Z,101161.60
2018-06-16T01:43:19.815Z,101149.37
2018-06-16T01:45:48.740Z,101154.20
2018-06-16T01:48:17.677Z,101155.59
2018-06-16T01:50:47.177Z,101149.92
2018-06-16T01:53:16.116Z,101152.38
2018-06-16T01:55:45.034Z,101143.19
2018-06-16T01:58:13.952Z,101141.97
2018-06-16T02:00:42.871Z,101148.77
2018-06-16T02:03:11.792Z,101148.27
2018-06-16T02:05:40.820Z,101149.41
2018-06-16T02:08:09.876Z,101147.81
2018-06-16T02:10:38.909Z,101143.54
2018-06-16T02:13:07.960Z,101144.26
2018-06-16T02:15:36.900Z,101146.20
2018-06-16T02:18:05.881Z,101136.33
2018-06-16T02:20:34.794Z,101139.83
2018-06-16T02:23:03.732Z,101144.55
2018-06-16T02:25:32.716Z,101136.82
2018-06-16T02:28:01.660Z,101137.21
2018-06-16T02:30:30.598Z,101139.48
2018-06-16T02:32:59.516Z,101136.27
2018-06-16T02:35:28.472Z,101136.76
2018-06-16T02:37:57.472Z,101136.23
2018-06-16T02:40:26.420Z,101139.83
2018-06-16T02:42:55.372Z,101131.55
2018-06-16T02:45:24.291Z,101142.06
2018-06-16T02:47:53.209Z,101137.80
2018-06-16T02:50:22.260Z,101131.06
2018-06-16T02:52:51.085Z,101132.48
2018-06-16T02:55:20.023Z,101140.25
2018-06-16T02:57:48.906Z,101133.45
2018-06-16T03:00:17.803Z,101133.55
2018-06-16T03:02:47.145Z,101135.43
2018-06-16T03:05:16.334Z,101130.48
2018-06-16T03:07:45.730Z,101140.52
2018-06-16T03:10:14.884Z,101143.30
2018-06-16T03:12:44.040Z,101136.88
2018-06-16T03:15:13.004Z,101148.05
2018-06-16T03:17:41.877Z,101144.55
2018-06-16T03:20:10.791Z,101132.80
2018-06-16T03:22:39.717Z,101134.72
2018-06-16T03:25:08.641Z,101139.41
2018-06-16T03:27:37.570Z,101138.27
2018-06-16T03:30:06.742Z,101137.52
2018-06-16T03:32:35.699Z,101137.69
2018-06-16T03:35:05.574Z,101140.12
2018-06-16T03:37:34.778Z,101143.70
2018-06-16T03:40:03.720Z,101140.21
2018-06-16T03:42:32.731Z,101139.75
2018-06-16T03:45:02.215Z,101134.28
2018-06-16T03:47:31.139Z,101136.20
2018-06-16T03:50:00.079Z,101138.97
2018-06-16T03:52:29.124Z,101130.03
2018-06-16T03:54:58.414Z,101136.48
2018-06-16T03:57:27.359Z,101133.24
2018-06-16T03:59:56.260Z,101135.21
2018-06-16T04:02:25.178Z,101140.67
2018-06-16T04:04:54.110Z,101139.92
2018-06-16T04:07:23.014Z,101142.61
2018-06-16T04:09:52.268Z,101138.28
2018-06-16T04:12:21.363Z,101142.93
2018-06-16T04:14:50.376Z,101137.47
2018-06-16T04:17:20.997Z,101137.75
2018-06-16T04:19:51.116Z,101143.97
2018-06-16T04:22:20.328Z,101146.31
2018-06-16T04:24:50.112Z,101144.27
2018-06-16T04:27:19.044Z,101144.64
2018-06-16T04:29:47.958Z,101146.05
2018-06-16T04:32:16.886Z,101143.34
2018-06-16T04:34:45.787Z,101140.38
2018-06-16T04:37:14.718Z,101146.71
2018-06-16T04:39:43.648Z,101143.76
2018-06-16T04:42:12.560Z,101144.28
2018-06-16T04:44:41.457Z,101146.74
2018-06-16T04:47:10.379Z,101148.83
2018-06-16T04:49:39.529Z,101146.69
2018-06-16T04:52:08.430Z,101151.00
2018-06-16T04:54:37.331Z,101156.20
2018-06-16T04:57:06.220Z,101157.62
2018-06-16T04:59:35.139Z,101161.12
2018-06-16T05:02:04.048Z,101161.23
2018-06-16T05:04:33.016Z,101162.61
2018-06-16T05:07:01.941Z,101152.20
2018-06-16T05:09:34.412Z,101151.55
2018-06-16T05:12:03.538Z,101153.22
2018-06-16T05:14:32.488Z,101153.05
2018-06-16T05:17:01.433Z,101155.84
2018-06-16T05:19:30.339Z,101151.42
2018-06-16T05:21:59.282Z,101150.42
2018-06-16T05:24:28.205Z,101150.23
2018-06-16T05:26:57.156Z,101151.86
2018-06-16T05:29:26.062Z,101155.44
2018-06-16T05:31:54.977Z,101158.99
2018-06-16T05:34:23.883Z,101157.89
2018-06-16T05:36:52.791Z,101156.32
2018-06-16T05:39:22.410Z,101155.83
2018-06-16T05:41:51.388Z,101161.06
2018-06-16T05:44:20.325Z,101163.22
2018-06-16T05:46:49.261Z,101169.26
2018-06-16T05:49:18.206Z,101162.49
2018-06-16T05:51:47.139Z,101158.41
2018-06-16T05:54:16.088Z,101160.09
2018-06-16T05:56:44.986Z,101165.03
2018-06-16T05:59:13.949Z,101167.53
2018-06-16T06:01:42.859Z,101166.44
2018-06-16T06:04:11.805Z,101163.95
2018-06-16T06:06:44.102Z,101174.60
2018-06-16T06:09:13.141Z,101176.59
2018-06-16T06:11:42.049Z,101177.17
2018-06-16T06:14:11.143Z,101173.66
2018-06-16T06:16:40.458Z,101179.97
2018-06-16T06:19:09.379Z,101171.33
2018-06-16T06:21:38.299Z,101181.67
2018-06-16T06:24:07.563Z,101172.70
2018-06-16T06:26:36.501Z,101174.32
2018-06-16T06:29:05.419Z,101171.12
2018-06-16T06:31:40.133Z,101168.14
2018-06-16T06:34:09.038Z,101169.51
2018-06-16T06:36:41.332Z,101169.80
2018-06-16T06:39:10.810Z,101174.73
2018-06-16T06:41:39.819Z,101170.15
2018-06-16T06:44:08.823Z,101169.05
2018-06-16T06:46:37.769Z,101172.66
2018-06-16T06:49:06.789Z,101167.24
2018-06-16T06:51:35.699Z,101176.78
2018-06-16T06:54:04.716Z,101176.28
2018-06-16T06:56:34.300Z,101183.64
2018-06-16T06:59:03.274Z,101174.64
2018-06-16T07:01:32.265Z,101182.57
2018-06-16T07:04:01.182Z,101181.22
2018-06-16T07:06:30.079Z,101177.46
2018-06-16T07:08:59.010Z,101174.98
2018-06-16T07:11:27.938Z,101180.72
2018-06-16T07:13:56.845Z,101177.48
2018-06-16T07:16:25.785Z,101185.12
2018-06-16T07:18:54.697Z,101186.50
2018-06-16T07:21:23.641Z,101176.16
2018-06-16T07:23:52.542Z,101173.96
2018-06-16T07:26:21.463Z,101180.81
2018-06-16T07:28:50.422Z,101184.41
2018-06-16T07:31:19.369Z,101184.11
2018-06-16T07:33:48.302Z,101181.91
2018-06-16T07:36:17.264Z,101186.84
2018-06-16T07:38:46.188Z,101192.33
2018-06-16T07:41:15.120Z,101193.41
2018-06-16T07:43:44.041Z,101193.70
2018-06-16T07:46:12.974Z,101200.23
2018-06-16T07:48:41.915Z,101189.89
2018-06-16T07:51:14.200Z,101182.23
2018-06-16T07:53:43.153Z,101187.99
2018-06-16T07:56:12.047Z,101184.74
2018-06-16T07:58:40.948Z,101190.73
2018-06-16T08:01:09.878Z,101186.64
2018-06-16T08:03:38.863Z,101184.52
2018-06-16T08:06:07.950Z,101189.94
2018-06-16T08:08:36.924Z,101200.01
2018-06-16T08:11:05.834Z,101203.86
2018-06-16T08:13:35.547Z,101187.20
2018-06-16T08:16:04.469Z,101188.56
2018-06-16T08:18:33.386Z,101190.75
2018-06-16T08:21:02.330Z,101198.94
2018-06-16T08:23:31.235Z,101197.30
2018-06-16T08:26:01.289Z,101196.48
2018-06-16T08:28:30.394Z,101187.73
2018-06-16T08:30:59.312Z,101192.39
2018-06-16T08:33:28.238Z,101192.67
2018-06-16T08:35:57.158Z,101189.70
2018-06-16T08:38:26.276Z,101188.34
2018-06-16T08:40:59.051Z,101183.97
2018-06-16T08:43:27.962Z,101183.97
2018-06-16T08:45:57.309Z,101183.69
2018-06-16T08:48:27.420Z,101181.52
2018-06-16T08:51:00.554Z,101186.42
2018-06-16T08:53:29.455Z,101188.34
2018-06-16T08:55:58.436Z,101184.51
2018-06-16T08:58:27.379Z,101175.20
2018-06-16T09:00:56.324Z,101166.72
2018-06-16T09:03:26.249Z,101171.62
2018-06-16T09:05:55.166Z,101172.73
2018-06-16T09:08:24.106Z,101166.99
2018-06-16T09:10:53.019Z,101160.15
2018-06-16T09:13:23.030Z,101164.23
2018-06-16T09:15:51.948Z,101162.89
2018-06-16T09:18:20.888Z,101163.38
2018-06-16T09:20:49.822Z,101166.41
2018-06-16T09:23:18.744Z,101161.22
2018-06-16T09:25:47.664Z,101169.69
2018-06-16T09:28:16.576Z,101166.11
2018-06-16T09:30:45.516Z,101170.19
2018-06-16T09:33:14.469Z,101162.53
2018-06-16T09:35:43.406Z,101163.33
2018-06-16T09:38:12.371Z,101166.83
2018-06-16T09:40:41.344Z,101161.62
2018-06-16T09:43:10.307Z,101157.21
2018-06-16T09:45:39.215Z,101170.86
2018-06-16T09:48:08.174Z,101165.62
2018-06-16T09:50:37.044Z,101170.28
2018-06-16T09:53:05.986Z,101172.77
2018-06-16T09:55:34.931Z,101170.79
2018-06-16T09:58:03.883Z,101168.38
2018-06-16T10:00:38.036Z,101176.55
2018-06-16T10:03:06.990Z,101174.09
2018-06-16T10:05:35.918Z,101167.80
2018-06-16T10:08:04.834Z,101166.11
2018-06-16T10:10:33.758Z,101163.11
2018-06-16T10:13:02.861Z,101163.84
2018-06-16T10:15:32.701Z,101157.58
2018-06-16T10:18:01.703Z,101160.33
2018-06-16T10:20:30.616Z,101163.75
2018-06-16T10:22:59.558Z,101155.77
2018-06-16T10:25:28.489Z,101153.30
2018-06-16T10:27:57.420Z,101151.83
2018-06-16T10:30:26.346Z,101149.67
2018-06-16T10:32:55.980Z,101145.27
2018-06-16T10:35:24.890Z,101147.07
2018-06-16T10:37:53.777Z,101138.81
2018-06-16T10:40:22.721Z,101141.45
2018-06-16T10:42:51.607Z,101134.87
2018-06-16T10:45:24.177Z,101140.07
2018-06-16T10:47:53.102Z,101135.45
2018-06-16T10:50:22.014Z,101137.61
2018-06-16T10:52:50.940Z,101134.27
2018-06-16T10:55:19.874Z,101127.46
2018-06-16T10:57:48.779Z,101124.23
2018-06-16T11:00:17.736Z,101118.73
2018-06-16T11:02:49.861Z,101124.20
2018-06-16T11:05:18.751Z,101123.44
2018-06-16T11:07:47.684Z,101125.73
2018-06-16T11:10:16.613Z,101127.70
2018-06-16T11:12:45.537Z,101126.94
2018-06-16T11:15:14.427Z,101129.66
2018-06-16T11:17:43.398Z,101127.47
2018-06-16T11:20:12.318Z,101135.92
2018-06-16T11:22:41.240Z,101131.27
2018-06-16T11:25:10.190Z,101136.16
2018-06-16T11:27:39.106Z,101127.36
2018-06-16T11:30:08.378Z,101119.58
2018-06-16T11:32:37.565Z,101122.59
2018-06-16T11:35:06.856Z,101121.23
2018-06-16T11:37:35.886Z,101115.56
2018-06-16T11:40:04.810Z,101111.31
2018-06-16T11:42:33.736Z,101112.25
2018-06-16T11:45:02.643Z,101118.05
2018-06-16T11:47:31.787Z,101117.81
2018-06-16T11:50:00.678Z,101124.33
2018-06-16T11:52:29.570Z,101121.00
2018-06-16T11:54:58.487Z,101121.27
2018-06-16T11:57:27.379Z,101120.77
2018-06-16T11:59:56.428Z,101121.08
2018-06-16T12:02:25.366Z,101119.45
2018-06-16T12:04:54.332Z,101116.98
2018-06-16T12:07:23.244Z,101117.48
2018-06-16T12:09:52.139Z,101113.27
2018-06-16T12:12:21.285Z,101113.81
2018-06-16T12:14:53.400Z,101108.88
2018-06-16T12:17:22.394Z,101101.52
2018-06-16T12:19:51.351Z,101091.44
2018-06-16T12:22:20.246Z,101092.02
2018-06-16T12:24:52.764Z,101092.84
2018-06-16T12:27:21.688Z,101093.94
2018-06-16T12:29:50.608Z,101095.88
2018-06-16T12:32:19.528Z,101094.76
2018-06-16T12:34:48.415Z,101093.59
2018-06-16T12:37:17.395Z,101091.83
2018-06-16T12:39:46.318Z,101093.68
2018-06-16T12:42:15.271Z,101085.27
2018-06-16T12:44:44.171Z,101086.77
2018-06-16T12:47:13.090Z,101082.46
2018-06-16T12:49:41.994Z,101087.70
2018-06-16T12:52:10.893Z,101076.17
2018-06-16T12:54:39.995Z,101071.98
2018-06-16T12:57:08.937Z,101068.03
2018-06-16T12:59:37.826Z,101070.77
2018-06-16T13:02:06.748Z,101065.41
2018-06-16T13:04:35.640Z,101060.79
2018-06-16T13:07:04.575Z,101063.14
2018-06-16T13:09:33.497Z,101058.39
2018-06-16T13:12:02.424Z,101056.12
2018-06-16T13:14:31.320Z,101055.52
2018-06-16T13:17:00.234Z,101049.64
2018-06-16T13:19:29.146Z,101049.92
2018-06-16T13:21:58.235Z,101044.41
2018-06-16T13:24:27.134Z,101045.88
2018-06-16T13:26:56.074Z,101037.73
2018-06-16T13:29:24.995Z,101032.14
2018-06-16T13:31:53.940Z,101027.03
2018-06-16T13:34:22.893Z,101023.45
2018-06-16T13:36:51.774Z,101013.63
2018-06-16T13:39:20.884Z,101011.05
2018-06-16T13:41:49.832Z,100996.69
2018-06-16T13:44:18.729Z,100995.12
2018-06-16T13:46:47.671Z,101001.78
2018-06-16T13:49:16.625Z,101010.81
2018-06-16T13:51:45.894Z,101005.95
2018-06-16T13:54:14.827Z,101011.08
2018-06-16T13:56:43.765Z,101012.06
2018-06-16T13:59:12.680Z,101011.89
2018-06-16T14:01:41.590Z,101005.89
2018-06-16T14:04:10.505Z,101002.87
2018-06-16T14:06:39.646Z,101002.05
2018-06-16T14:09:09.818Z,101005.28
2018-06-16T14:11:38.750Z,100999.77
2018-06-16T14:14:07.683Z,101000.83
2018-06-16T14:16:36.590Z,100990.88
2018-06-16T14:19:05.491Z,100985.71
2018-06-16T14:21:34.379Z,100987.25
2018-06-16T14:24:03.291Z,100988.44
2018-06-16T14:26:32.230Z,100985.97
2018-06-16T14:29:01.195Z,100978.69
2018-06-16T14:31:30.145Z,100979.87
2018-06-16T14:33:59.418Z,100976.07
2018-06-16T14:36:28.340Z,100982.37
2018-06-16T14:38:57.262Z,100979.15
2018-06-16T14:41:26.183Z,100978.87
2018-06-16T14:43:55.311Z,100983.47
2018-06-16T14:46:24.645Z,100985.73
2018-06-16T14:48:53.801Z,100979.39
2018-06-16T14:51:22.707Z,100973.87
2018-06-16T14:53:55.178Z,100968.73
2018-06-16T14:56:24.136Z,100970.81
2018-06-16T14:58:53.057Z,100969.27
2018-06-16T15:01:21.955Z,100971.36
2018-06-16T15:03:50.925Z,100971.34
2018-06-16T15:06:19.842Z,100970.27
2018-06-16T15:08:48.734Z,100971.48
2018-06-16T15:11:19.652Z,100971.21
2018-06-16T15:13:48.611Z,100964.73
2018-06-16T15:16:17.584Z,100957.02
2018-06-16T15:18:46.502Z,100956.00
2018-06-16T15:21:15.422Z,100960.31
2018-06-16T15:23:44.347Z,100961.34
2018-06-16T15:26:13.252Z,100963.17
2018-06-16T15:28:42.174Z,100959.97
2018-06-16T15:31:12.065Z,100951.86
2018-06-16T15:33:41.278Z,100955.67
2018-06-16T15:36:10.478Z,100949.34
2018-06-16T15:38:39.390Z,100947.74
2018-06-16T15:41:08.454Z,100945.00
2018-06-16T15:43:37.355Z,100941.50
2018-06-16T15:46:06.327Z,100946.59
2018-06-16T15:48:35.482Z,100945.45
2018-06-16T15:51:04.436Z,100942.88
2018-06-16T15:53:33.346Z,100944.81
2018-06-16T15:56:02.239Z,100946.23
2018-06-16T15:58:34.797Z,100941.05
2018-06-16T16:01:03.679Z,100941.41
2018-06-16T16:03:32.603Z,100942.77
2018-06-16T16:06:02.512Z,100941.13
2018-06-16T16:08:31.459Z,100938.78
2018-06-16T16:11:00.370Z,100936.34
2018-06-16T16:13:29.385Z,100947.32
2018-06-16T16:15:58.521Z,100950.59
2018-06-16T16:18:27.429Z,100954.14
2018-06-16T16:20:56.361Z,100970.34
2018-06-16T16:23:25.356Z,100977.86
2018-06-16T16:25:54.329Z,100986.21
2018-06-16T16:28:23.218Z,100990.51
2018-06-16T16:30:52.133Z,100998.24
2018-06-16T16:33:21.042Z,101013.19
2018-06-16T16:35:50.436Z,101018.56
2018-06-16T16:38:19.661Z,101034.23
2018-06-16T16:40:48.588Z,101032.41
2018-06-16T16:43:17.523Z,101035.08
2018-06-16T16:45:46.410Z,101029.73
2018-06-16T16:48:15.373Z,101028.14
2018-06-16T16:50:44.278Z,101032.63
2018-06-16T16:53:13.198Z,101039.84
2018-06-16T16:55:42.133Z,101042.55
2018-06-16T16:58:11.090Z,101026.70
2018-06-16T17:00:40.023Z,101019.32
2018-06-16T17:03:08.967Z,101016.84
2018-06-16T17:05:37.860Z,101021.25
2018-06-16T17:08:06.782Z,101027.44
2018-06-16T17:10:35.695Z,101026.86
2018-06-16T17:13:04.641Z,101026.87
2018-06-16T17:15:33.560Z,101031.80
2018-06-16T17:18:02.475Z,101029.84
2018-06-16T17:20:31.383Z,101026.28
2018-06-16T17:23:00.283Z,101028.73
2018-06-16T17:25:29.203Z,101027.36
2018-06-16T17:27:58.160Z,101027.14
2018-06-16T17:30:27.079Z,101034.00
2018-06-16T17:32:55.983Z,101029.64
2018-06-16T17:35:24.941Z,101030.16
2018-06-16T17:37:53.901Z,101028.20
2018-06-16T17:40:22.841Z,101029.83
2018-06-16T17:42:51.785Z,101026.56
2018-06-16T17:45:20.681Z,101036.93
2018-06-16T17:47:49.628Z,101033.38
2018-06-16T17:50:18.680Z,101035.28
2018-06-16T17:52:47.726Z,101034.48
2018-06-16T17:55:16.630Z,101030.65
2018-06-16T17:57:45.585Z,101027.36
2018-06-16T18:00:14.510Z,101024.91
2018-06-16T18:02:43.458Z,101026.28
2018-06-16T18:05:12.557Z,101032.84
2018-06-16T18:07:41.465Z,101030.41
2018-06-16T18:10:10.381Z,101023.00
2018-06-16T18:12:39.282Z,101025.73
2018-06-16T18:15:08.231Z,101036.13
2018-06-16T18:17:37.482Z,101029.03
2018-06-16T18:20:06.400Z,101027.41
2018-06-16T18:22:35.784Z,101024.38
2018-06-16T18:25:08.199Z,101024.41
2018-06-16T18:27:37.137Z,101031.24
2018-06-16T18:30:06.079Z,101035.91
2018-06-16T18:32:34.972Z,101040.00
2018-06-16T18:35:03.970Z,101038.34
2018-06-16T18:37:32.940Z,101036.41
2018-06-16T18:40:01.911Z,101038.34
2018-06-16T18:42:30.881Z,101035.33
2018-06-16T18:44:59.994Z,101041.36
2018-06-16T18:47:28.926Z,101042.98
2018-06-16T18:49:57.842Z,101049.81
2018-06-16T18:52:26.754Z,101047.09
2018-06-16T18:54:55.682Z,101049.30
2018-06-16T18:57:24.702Z,101056.94
2018-06-16T18:59:53.608Z,101060.51
2018-06-16T19:02:22.519Z,101064.05
2018-06-16T19:04:51.437Z,101072.25
2018-06-16T19:07:20.378Z,101066.22
2018-06-16T19:09:49.313Z,101065.69
2018-06-16T19:12:18.224Z,101080.17
2018-06-16T19:14:47.411Z,101087.01
2018-06-16T19:17:16.614Z,101088.09
2018-06-16T19:19:46.026Z,101094.92
2018-06-16T19:22:15.763Z,101086.45
2018-06-16T19:24:48.673Z,101085.91
2018-06-16T19:27:17.605Z,101091.36
2018-06-16T19:29:46.546Z,101092.17
2018-06-16T19:32:15.514Z,101093.53
2018-06-16T19:34:44.436Z,101094.09
2018-06-16T19:37:13.405Z,101100.35
2018-06-16T19:39:42.336Z,101103.08
2018-06-16T19:42:11.280Z,101102.25
2018-06-16T19:44:40.206Z,101109.59
2018-06-16T19:47:09.108Z,101112.09
2018-06-16T19:49:38.046Z,101114.83
2018-06-16T19:52:07.106Z,101111.53
2018-06-16T19:54:36.021Z,101110.16
2018-06-16T19:57:05.009Z,101110.16
2018-06-16T19:59:34.053Z,101113.42
2018-06-16T20:02:03.071Z,101115.28
2018-06-16T20:04:31.929Z,101118.85
2018-06-16T20:07:04.432Z,101121.02
2018-06-16T20:09:33.354Z,101132.45
2018-06-16T20:12:02.274Z,101138.94
2018-06-16T20:14:31.194Z,101137.55
2018-06-16T20:17:00.100Z,101135.34
2018-06-16T20:19:29.132Z,101143.78
2018-06-16T20:21:58.266Z,101143.28
2018-06-16T20:24:27.276Z,101148.97
2018-06-16T20:26:56.203Z,101147.05
2018-06-16T20:29:25.109Z,101149.51
2018-06-16T20:31:54.108Z,101147.30
2018-06-16T20:34:23.032Z,101151.97
2018-06-16T20:36:51.950Z,101150.12
2018-06-16T20:39:21.230Z,101157.84
2018-06-16T20:41:50.131Z,101157.84
2018-06-16T20:44:19.060Z,101168.50
2018-06-16T20:46:47.983Z,101164.99
2018-06-16T20:49:17.087Z,101172.63
2018-06-16T20:51:46.027Z,101177.56
2018-06-16T20:54:16.052Z,101172.64
2018-06-16T20:56:45.011Z,101180.31
2018-06-16T20:59:13.920Z,101181.91
2018-06-16T21:01:43.147Z,101185.20
2018-06-16T21:04:12.092Z,101179.73
2018-06-16T21:06:41.026Z,101182.48
2018-06-16T21:09:11.354Z,101184.41
2018-06-16T21:11:40.387Z,101185.48
2018-06-16T21:14:09.373Z,101179.48
2018-06-16T21:16:38.290Z,101179.75
2018-06-16T21:19:07.443Z,101185.50
2018-06-16T21:21:36.790Z,101182.74
2018-06-16T21:24:05.877Z,101181.11
2018-06-16T21:26:34.980Z,101176.21
2018-06-16T21:29:04.019Z,101173.47
2018-06-16T21:31:32.929Z,101170.45
2018-06-16T21:34:01.871Z,101173.44
2018-06-16T21:36:30.784Z,101177.80
2018-06-16T21:38:59.814Z,101171.80
2018-06-16T21:41:28.734Z,101173.42
2018-06-16T21:43:57.695Z,101174.24
2018-06-16T21:46:26.617Z,101176.16
2018-06-16T21:48:55.715Z,101184.53
2018-06-16T21:51:24.653Z,101181.50
2018-06-16T21:53:53.648Z,101186.63
2018-06-16T21:56:22.619Z,101187.38
2018-06-16T21:58:51.571Z,101185.66
2018-06-16T22:01:20.538Z,101186.68
2018-06-16T22:03:49.460Z,101184.46
2018-06-16T22:06:18.382Z,101186.66
2018-06-16T22:08:47.367Z,101182.71
2018-06-16T22:11:16.373Z,101190.62
2018-06-16T22:13:46.170Z,101185.69
2018-06-16T22:16:15.124Z,101186.26
2018-06-16T22:18:44.036Z,101195.77
2018-06-16T22:21:12.958Z,101191.42
2018-06-16T22:23:41.951Z,101189.14
2018-06-16T22:26:10.878Z,101194.06
2018-06-16T22:28:39.956Z,101192.11
2018-06-16T22:31:08.929Z,101193.93
2018-06-16T22:33:37.849Z,101192.78
2018-06-16T22:36:06.900Z,101192.83
2018-06-16T22:38:35.817Z,101193.40
2018-06-16T22:41:04.793Z,101191.02
2018-06-16T22:43:33.741Z,101192.95
2018-06-16T22:46:02.644Z,101187.93
2018-06-16T22:48:31.832Z,101193.07
2018-06-16T22:51:00.749Z,101190.53
2018-06-16T22:53:29.688Z,101183.09
2018-06-16T22:55:58.662Z,101188.81
2018-06-16T22:58:27.563Z,101187.47
2018-06-16T23:00:56.494Z,101181.67
2018-06-16T23:03:25.424Z,101185.11
2018-06-16T23:05:54.582Z,101182.68
2018-06-16T23:08:23.529Z,101181.55
2018-06-16T23:10:52.448Z,101184.51
2018-06-16T23:13:21.397Z,101193.20
2018-06-16T23:15:50.352Z,101186.69
2018-06-16T23:18:19.594Z,101191.02
2018-06-16T23:20:48.844Z,101195.86
2018-06-16T23:23:18.055Z,101198.59
2018-06-16T23:25:47.035Z,101195.27
2018-06-16T23:28:15.952Z,101198.63
2018-06-16T23:30:44.904Z,101196.42
2018-06-16T23:33:13.834Z,101198.97
2018-06-16T23:35:42.775Z,101200.88
2018-06-16T23:38:11.840Z,101203.34
2018-06-16T23:40:40.744Z,101204.56
2018-06-16T23:43:09.750Z,101206.41
2018-06-16T23:45:38.664Z,101204.44
2018-06-16T23:48:07.625Z,101215.56
2018-06-16T23:50:36.547Z,101220.14
2018-06-16T23:53:05.486Z,101219.16
2018-06-16T23:55:34.836Z,101221.91
2018-06-16T23:58:04.113Z,101223.50
